sensor_id;sensor_type;location;lat;lon;timestamp;pressure;altitude;pressure_sealevel;temperature;humidity
16255;BME280;8235;52.198;9.904;2023-02-05T00:01:26;103096.31;;;-0.91;91.48
16255;BME280;8235;52.198;9.904;2023-02-05T00:03:53;103083.19;;;-0.92;91.60
16255;BME280;8235;52.198;9.904;2023-02-05T00:06:20;103074.44;;;-0.94;91.89
16255;BME280;8235;52.198;9.904;2023-02-05T00:08:47;103070.91;;;-0.96;92.04
16255;BME280;8235;52.198;9.904;2023-02-05T00:11:13;103072.56;;;-1.00;92.03
16255;BME280;8235;52.198;9.904;2023-02-05T00:13:41;103062.81;;;-1.06;92.07
16255;BME280;8235;52.198;9.904;2023-02-05T00:16:08;103061.94;;;-1.06;92.21
16255;BME280;8235;52.198;9.904;2023-02-05T00:18:35;103055.81;;;-1.07;92.43
16255;BME280;8235;52.198;9.904;2023-02-05T00:21:02;103053.22;;;-1.07;92.42
16255;BME280;8235;52.198;9.904;2023-02-05T00:23:38;103049.72;;;-1.07;92.71
16255;BME280;8235;52.198;9.904;2023-02-05T00:26:06;103039.25;;;-1.07;92.78
16255;BME280;8235;52.198;9.904;2023-02-05T00:28:43;103043.63;;;-1.08;92.99
16255;BME280;8235;52.198;9.904;2023-02-05T00:31:12;103046.22;;;-1.09;92.70
16255;BME280;8235;52.198;9.904;2023-02-05T00:33:40;103047.09;;;-1.09;93.20
16255;BME280;8235;52.198;9.904;2023-02-05T00:36:09;103044.47;;;-1.09;93.31
16255;BME280;8235;52.198;9.904;2023-02-05T00:38:40;103038.38;;;-1.09;93.16
16255;BME280;8235;52.198;9.904;2023-02-05T00:41:07;103039.22;;;-1.10;93.24
16255;BME280;8235;52.198;9.904;2023-02-05T00:43:35;103039.16;;;-1.12;93.39
16255;BME280;8235;52.198;9.904;2023-02-05T00:46:05;103034.81;;;-1.11;93.68
16255;BME280;8235;52.198;9.904;2023-02-05T00:48:33;103029.53;;;-1.14;93.40
16255;BME280;8235;52.198;9.904;2023-02-05T00:50:59;103023.38;;;-1.16;93.46
16255;BME280;8235;52.198;9.904;2023-02-05T00:53:26;103016.38;;;-1.17;93.72
16255;BME280;8235;52.198;9.904;2023-02-05T00:55:54;103011.09;;;-1.19;93.71
16255;BME280;8235;52.198;9.904;2023-02-05T00:58:20;103004.97;;;-1.21;94.07
16255;BME280;8235;52.198;9.904;2023-02-05T01:00:48;102995.38;;;-1.20;93.54
16255;BME280;8235;52.198;9.904;2023-02-05T01:03:18;102986.63;;;-1.22;93.71
16255;BME280;8235;52.198;9.904;2023-02-05T01:05:45;102987.50;;;-1.22;93.98
16255;BME280;8235;52.198;9.904;2023-02-05T01:08:12;102982.22;;;-1.23;94.39
16255;BME280;8235;52.198;9.904;2023-02-05T01:10:42;102986.53;;;-1.25;94.13
16255;BME280;8235;52.198;9.904;2023-02-05T01:13:10;102986.53;;;-1.25;94.27
16255;BME280;8235;52.198;9.904;2023-02-05T01:15:37;102984.81;;;-1.25;94.35
16255;BME280;8235;52.198;9.904;2023-02-05T01:18:04;102972.59;;;-1.27;94.38
16255;BME280;8235;52.198;9.904;2023-02-05T01:20:31;102969.97;;;-1.27;94.69
16255;BME280;8235;52.198;9.904;2023-02-05T01:22:57;102972.59;;;-1.27;94.66
16255;BME280;8235;52.198;9.904;2023-02-05T01:25:23;102963.81;;;-1.29;94.76
16255;BME280;8235;52.198;9.904;2023-02-05T01:27:50;102953.38;;;-1.29;94.58
16255;BME280;8235;52.198;9.904;2023-02-05T01:30:18;102944.59;;;-1.31;94.92
16255;BME280;8235;52.198;9.904;2023-02-05T01:32:44;102944.59;;;-1.31;95.34
16255;BME280;8235;52.198;9.904;2023-02-05T01:35:13;102942.84;;;-1.32;94.98
16255;BME280;8235;52.198;9.904;2023-02-05T01:37:40;102941.94;;;-1.33;95.32
16255;BME280;8235;52.198;9.904;2023-02-05T01:40:08;102928.00;;;-1.33;95.11
16255;BME280;8235;52.198;9.904;2023-02-05T01:42:34;102925.31;;;-1.36;95.22
16255;BME280;8235;52.198;9.904;2023-02-05T01:45:37;102936.63;;;-1.37;95.52
16255;BME280;8235;52.198;9.904;2023-02-05T01:48:07;102938.31;;;-1.40;95.39
16255;BME280;8235;52.198;9.904;2023-02-05T01:50:37;102932.16;;;-1.42;95.41
16255;BME280;8235;52.198;9.904;2023-02-05T01:53:09;102946.94;;;-1.44;95.09
16255;BME280;8235;52.198;9.904;2023-02-05T01:55:39;102938.22;;;-1.43;95.73
16255;BME280;8235;52.198;9.904;2023-02-05T01:58:06;102948.69;;;-1.44;95.70
16255;BME280;8235;52.198;9.904;2023-02-05T02:00:32;102938.22;;;-1.44;95.76
16255;BME280;8235;52.198;9.904;2023-02-05T02:03:00;102919.91;;;-1.46;95.87
16255;BME280;8235;52.198;9.904;2023-02-05T02:05:27;102904.22;;;-1.46;95.94
16255;BME280;8235;52.198;9.904;2023-02-05T02:07:53;102896.34;;;-1.47;95.66
16255;BME280;8235;52.198;9.904;2023-02-05T02:10:20;102891.06;;;-1.49;95.98
16255;BME280;8235;52.198;9.904;2023-02-05T02:12:47;102892.78;;;-1.51;95.94
16255;BME280;8235;52.198;9.904;2023-02-05T02:15:16;102884.00;;;-1.53;95.38
16255;BME280;8235;52.198;9.904;2023-02-05T02:17:46;102883.09;;;-1.55;95.93
16255;BME280;8235;52.198;9.904;2023-02-05T02:20:15;102888.31;;;-1.55;95.79
16255;BME280;8235;52.198;9.904;2023-02-05T02:22:57;102897.00;;;-1.56;95.83
16255;BME280;8235;52.198;9.904;2023-02-05T02:25:55;102883.03;;;-1.58;95.79
16255;BME280;8235;52.198;9.904;2023-02-05T02:28:34;102874.25;;;-1.60;96.07
16255;BME280;8235;52.198;9.904;2023-02-05T02:31:05;102876.00;;;-1.62;96.03
16255;BME280;8235;52.198;9.904;2023-02-05T02:33:36;102870.72;;;-1.63;95.57
16255;BME280;8235;52.198;9.904;2023-02-05T02:36:09;102863.78;;;-1.63;95.96
16255;BME280;8235;52.198;9.904;2023-02-05T02:38:40;102862.03;;;-1.62;96.18
16255;BME280;8235;52.198;9.904;2023-02-05T02:41:12;102863.78;;;-1.63;95.75
16255;BME280;8235;52.198;9.904;2023-02-05T02:43:47;102871.59;;;-1.63;96.28
16255;BME280;8235;52.198;9.904;2023-02-05T02:46:18;102860.31;;;-1.62;96.17
16255;BME280;8235;52.198;9.904;2023-02-05T02:48:47;102859.44;;;-1.62;96.56
16255;BME280;8235;52.198;9.904;2023-02-05T02:51:17;102855.09;;;-1.62;96.09
16255;BME280;8235;52.198;9.904;2023-02-05T02:53:47;102847.25;;;-1.62;96.26
16255;BME280;8235;52.198;9.904;2023-02-05T02:56:16;102841.13;;;-1.61;96.47
16255;BME280;8235;52.198;9.904;2023-02-05T02:58:48;102837.69;;;-1.60;96.38
16255;BME280;8235;52.198;9.904;2023-02-05T03:01:16;102835.09;;;-1.58;96.33
16255;BME280;8235;52.198;9.904;2023-02-05T03:03:50;102839.44;;;-1.59;96.66
16255;BME280;8235;52.198;9.904;2023-02-05T03:06:19;102842.94;;;-1.58;96.93
16255;BME280;8235;52.198;9.904;2023-02-05T03:08:51;102844.66;;;-1.59;96.44
16255;BME280;8235;52.198;9.904;2023-02-05T03:11:19;102853.41;;;-1.58;96.74
16255;BME280;8235;52.198;9.904;2023-02-05T03:13:47;102849.88;;;-1.60;96.44
16255;BME280;8235;52.198;9.904;2023-02-05T03:16:15;102848.97;;;-1.61;96.25
16255;BME280;8235;52.198;9.904;2023-02-05T03:18:43;102845.53;;;-1.61;96.16
16255;BME280;8235;52.198;9.904;2023-02-05T03:21:14;102847.25;;;-1.62;96.63
16255;BME280;8235;52.198;9.904;2023-02-05T03:23:41;102854.19;;;-1.62;96.44
16255;BME280;8235;52.198;9.904;2023-02-05T03:26:21;102856.81;;;-1.62;96.60
16255;BME280;8235;52.198;9.904;2023-02-05T03:28:49;102850.72;;;-1.63;96.51
16255;BME280;8235;52.198;9.904;2023-02-05T03:31:18;102856.81;;;-1.62;96.47
16255;BME280;8235;52.198;9.904;2023-02-05T03:33:52;102846.31;;;-1.64;96.57
16255;BME280;8235;52.198;9.904;2023-02-05T03:36:24;102852.38;;;-1.66;96.18
16255;BME280;8235;52.198;9.904;2023-02-05T03:39:03;102841.84;;;-1.69;96.03
16255;BME280;8235;52.198;9.904;2023-02-05T03:41:37;102837.44;;;-1.72;96.34
16255;BME280;8235;52.198;9.904;2023-02-05T03:44:35;102832.19;;;-1.72;95.84
16255;BME280;8235;52.198;9.904;2023-02-05T03:47:08;102835.66;;;-1.73;96.13
16255;BME280;8235;52.198;9.904;2023-02-05T03:49:47;102837.38;;;-1.73;96.45
16255;BME280;8235;52.198;9.904;2023-02-05T03:52:19;102835.66;;;-1.73;96.38
16255;BME280;8235;52.198;9.904;2023-02-05T03:54:51;102827.81;;;-1.73;96.38
16255;BME280;8235;52.198;9.904;2023-02-05T03:57:29;102834.81;;;-1.72;96.12
16255;BME280;8235;52.198;9.904;2023-02-05T03:59:59;102832.19;;;-1.72;96.81
16255;BME280;8235;52.198;9.904;2023-02-05T04:02:27;102825.22;;;-1.73;96.68
16255;BME280;8235;52.198;9.904;2023-02-05T04:04:53;102815.66;;;-1.72;96.69
16255;BME280;8235;52.198;9.904;2023-02-05T04:07:20;102813.03;;;-1.72;96.23
16255;BME280;8235;52.198;9.904;2023-02-05T04:09:46;102813.00;;;-1.74;96.93
16255;BME280;8235;52.198;9.904;2023-02-05T04:12:12;102809.59;;;-1.70;96.86
16255;BME280;8235;52.198;9.904;2023-02-05T04:14:39;102808.75;;;-1.69;96.62
16255;BME280;8235;52.198;9.904;2023-02-05T04:17:08;102804.47;;;-1.67;96.96
16255;BME280;8235;52.198;9.904;2023-02-05T04:19:34;102802.75;;;-1.65;97.06
16255;BME280;8235;52.198;9.904;2023-02-05T04:22:01;102801.94;;;-1.62;97.40
16255;BME280;8235;52.198;9.904;2023-02-05T04:24:27;102805.56;;;-1.56;97.15
16255;BME280;8235;52.198;9.904;2023-02-05T04:26:54;102802.16;;;-1.52;97.65
16255;BME280;8235;52.198;9.904;2023-02-05T04:29:21;102808.41;;;-1.45;97.75
16255;BME280;8235;52.198;9.904;2023-02-05T04:31:48;102813.69;;;-1.41;97.37
16255;BME280;8235;52.198;9.904;2023-02-05T04:34:15;102813.00;;;-1.32;97.49
16255;BME280;8235;52.198;9.904;2023-02-05T04:36:42;102810.53;;;-1.26;97.94
16255;BME280;8235;52.198;9.904;2023-02-05T04:39:08;102803.63;;;-1.21;98.05
16255;BME280;8235;52.198;9.904;2023-02-05T04:41:35;102804.66;;;-1.14;98.20
16255;BME280;8235;52.198;9.904;2023-02-05T04:44:01;102806.50;;;-1.07;98.11
16255;BME280;8235;52.198;9.904;2023-02-05T04:46:28;102806.66;;;-0.99;98.19
16255;BME280;8235;52.198;9.904;2023-02-05T04:48:54;102811.16;;;-0.92;98.33
16255;BME280;8235;52.198;9.904;2023-02-05T04:51:22;102801.69;;;-0.86;98.16
16255;BME280;8235;52.198;9.904;2023-02-05T04:53:48;102792.25;;;-0.78;97.96
16255;BME280;8235;52.198;9.904;2023-02-05T04:56:16;102787.09;;;-0.72;97.99
16255;BME280;8235;52.198;9.904;2023-02-05T04:58:43;102786.31;;;-0.66;97.55
16255;BME280;8235;52.198;9.904;2023-02-05T05:01:11;102785.56;;;-0.60;97.38
16255;BME280;8235;52.198;9.904;2023-02-05T05:03:38;102790.00;;;-0.56;97.07
16255;BME280;8235;52.198;9.904;2023-02-05T05:06:06;102792.69;;;-0.50;96.96
16255;BME280;8235;52.198;9.904;2023-02-05T05:08:34;102795.38;;;-0.47;96.73
16255;BME280;8235;52.198;9.904;2023-02-05T05:11:05;102791.06;;;-0.44;96.67
16255;BME280;8235;52.198;9.904;2023-02-05T05:13:32;102786.78;;;-0.39;96.24
16255;BME280;8235;52.198;9.904;2023-02-05T05:15:58;102779.84;;;-0.35;95.66
16255;BME280;8235;52.198;9.904;2023-02-05T05:18:25;102786.00;;;-0.31;94.97
16255;BME280;8235;52.198;9.904;2023-02-05T05:20:51;102783.44;;;-0.28;94.71
16255;BME280;8235;52.198;9.904;2023-02-05T05:23:18;102783.50;;;-0.25;94.38
16255;BME280;8235;52.198;9.904;2023-02-05T05:25:47;102781.81;;;-0.22;94.14
16255;BME280;8235;52.198;9.904;2023-02-05T05:28:15;102775.72;;;-0.21;93.87
16255;BME280;8235;52.198;9.904;2023-02-05T05:30:43;102780.97;;;-0.18;93.55
16255;BME280;8235;52.198;9.904;2023-02-05T05:33:10;102778.38;;;-0.16;93.31
16255;BME280;8235;52.198;9.904;2023-02-05T05:35:37;102778.41;;;-0.15;93.03
16255;BME280;8235;52.198;9.904;2023-02-05T05:38:04;102775.78;;;-0.15;92.95
16255;BME280;8235;52.198;9.904;2023-02-05T05:40:31;102779.34;;;-0.11;92.73
16255;BME280;8235;52.198;9.904;2023-02-05T05:43:19;102781.13;;;-0.09;92.16
16255;BME280;8235;52.198;9.904;2023-02-05T05:46:05;102770.66;;;-0.09;91.80
16255;BME280;8235;52.198;9.904;2023-02-05T05:48:31;102756.69;;;-0.08;91.86
16255;BME280;8235;52.198;9.904;2023-02-05T05:50:58;102755.81;;;-0.08;91.46
16255;BME280;8235;52.198;9.904;2023-02-05T05:53:25;102768.09;;;-0.04;91.19
16255;BME280;8235;52.198;9.904;2023-02-05T05:55:51;102756.75;;;-0.05;91.13
16255;BME280;8235;52.198;9.904;2023-02-05T05:58:19;102746.31;;;-0.02;90.71
16255;BME280;8235;52.198;9.904;2023-02-05T06:00:45;102741.06;;;-0.02;90.47
16255;BME280;8235;52.198;9.904;2023-02-05T06:03:12;102744.56;;;0.00;90.39
16255;BME280;8235;52.198;9.904;2023-02-05T06:05:38;102749.84;;;0.04;90.15
16255;BME280;8235;52.198;9.904;2023-02-05T06:08:05;102736.75;;;0.04;89.94
16255;BME280;8235;52.198;9.904;2023-02-05T06:10:32;102728.00;;;0.03;89.75
16255;BME280;8235;52.198;9.904;2023-02-05T06:12:59;102714.94;;;0.05;89.78
16255;BME280;8235;52.198;9.904;2023-02-05T06:15:27;102720.19;;;0.05;89.56
16255;BME280;8235;52.198;9.904;2023-02-05T06:17:53;102718.44;;;0.05;89.59
16255;BME280;8235;52.198;9.904;2023-02-05T06:20:20;102711.47;;;0.06;89.48
16255;BME280;8235;52.198;9.904;2023-02-05T06:22:46;102714.09;;;0.07;89.25
16255;BME280;8235;52.198;9.904;2023-02-05T06:25:13;102716.75;;;0.09;89.24
16255;BME280;8235;52.198;9.904;2023-02-05T06:27:39;102703.66;;;0.09;89.10
16255;BME280;8235;52.198;9.904;2023-02-05T06:30:07;102700.16;;;0.10;88.98
16255;BME280;8235;52.198;9.904;2023-02-05T06:32:35;102708.06;;;0.11;88.86
16255;BME280;8235;52.198;9.904;2023-02-05T06:35:02;102693.22;;;0.12;89.01
16255;BME280;8235;52.198;9.904;2023-02-05T06:37:28;102690.59;;;0.12;88.96
16255;BME280;8235;52.198;9.904;2023-02-05T06:39:55;102677.50;;;0.13;88.43
16255;BME280;8235;52.198;9.904;2023-02-05T06:42:22;102672.31;;;0.16;88.81
16255;BME280;8235;52.198;9.904;2023-02-05T06:44:48;102656.59;;;0.16;88.39
16255;BME280;8235;52.198;9.904;2023-02-05T06:47:15;102667.06;;;0.19;88.43
16255;BME280;8235;52.198;9.904;2023-02-05T06:49:42;102678.41;;;0.18;88.12
16255;BME280;8235;52.198;9.904;2023-02-05T06:52:09;102688.91;;;0.20;88.18
16255;BME280;8235;52.198;9.904;2023-02-05T06:54:35;102693.31;;;0.21;88.30
16255;BME280;8235;52.198;9.904;2023-02-05T06:57:03;102700.31;;;0.22;88.18
16255;BME280;8235;52.198;9.904;2023-02-05T06:59:29;102704.69;;;0.23;88.75
16255;BME280;8235;52.198;9.904;2023-02-05T07:01:56;102707.31;;;0.24;88.35
16255;BME280;8235;52.198;9.904;2023-02-05T07:04:22;102703.81;;;0.24;87.79
16255;BME280;8235;52.198;9.904;2023-02-05T07:06:52;102702.09;;;0.26;88.21
16255;BME280;8235;52.198;9.904;2023-02-05T07:09:19;102713.47;;;0.26;87.97
16255;BME280;8235;52.198;9.904;2023-02-05T07:11:45;102709.09;;;0.27;87.84
16255;BME280;8235;52.198;9.904;2023-02-05T07:14:12;102706.50;;;0.27;87.82
16255;BME280;8235;52.198;9.904;2023-02-05T07:16:38;102702.13;;;0.27;87.62
16255;BME280;8235;52.198;9.904;2023-02-05T07:19:05;102698.63;;;0.27;87.63
16255;BME280;8235;52.198;9.904;2023-02-05T07:21:31;102689.91;;;0.28;87.59
16255;BME280;8235;52.198;9.904;2023-02-05T07:24:00;102692.53;;;0.29;87.51
16255;BME280;8235;52.198;9.904;2023-02-05T07:26:26;102692.56;;;0.31;87.35
16255;BME280;8235;52.198;9.904;2023-02-05T07:28:52;102692.53;;;0.29;87.38
16255;BME280;8235;52.198;9.904;2023-02-05T07:31:19;102697.81;;;0.31;87.25
16255;BME280;8235;52.198;9.904;2023-02-05T07:33:46;102710.06;;;0.32;87.47
16255;BME280;8235;52.198;9.904;2023-02-05T07:36:15;102713.56;;;0.34;87.43
16255;BME280;8235;52.198;9.904;2023-02-05T07:38:43;102700.50;;;0.36;87.52
16255;BME280;8235;52.198;9.904;2023-02-05T07:41:12;102696.09;;;0.36;87.43
16255;BME280;8235;52.198;9.904;2023-02-05T07:43:40;102703.09;;;0.37;87.53
16255;BME280;8235;52.198;9.904;2023-02-05T07:46:09;102691.75;;;0.38;87.47
16255;BME280;8235;52.198;9.904;2023-02-05T07:48:36;102697.91;;;0.40;87.60
16255;BME280;8235;52.198;9.904;2023-02-05T07:51:03;102683.06;;;0.42;87.48
16255;BME280;8235;52.198;9.904;2023-02-05T07:53:30;102687.44;;;0.43;87.19
16255;BME280;8235;52.198;9.904;2023-02-05T07:56:01;102683.97;;;0.46;87.40
16255;BME280;8235;52.198;9.904;2023-02-05T07:58:29;102677.00;;;0.46;87.43
16255;BME280;8235;52.198;9.904;2023-02-05T08:00:59;102676.19;;;0.50;87.55
16255;BME280;8235;52.198;9.904;2023-02-05T08:03:25;102677.97;;;0.53;87.61
16255;BME280;8235;52.198;9.904;2023-02-05T08:05:52;102676.22;;;0.56;87.19
16255;BME280;8235;52.198;9.904;2023-02-05T08:08:19;102677.13;;;0.58;87.66
16255;BME280;8235;52.198;9.904;2023-02-05T08:10:45;102685.03;;;0.61;87.54
16255;BME280;8235;52.198;9.904;2023-02-05T08:13:11;102677.19;;;0.64;87.37
16255;BME280;8235;52.198;9.904;2023-02-05T08:15:39;102674.59;;;0.67;87.34
16255;BME280;8235;52.198;9.904;2023-02-05T08:18:06;102677.25;;;0.71;87.45
16255;BME280;8235;52.198;9.904;2023-02-05T08:20:32;102679.00;;;0.73;87.39
16255;BME280;8235;52.198;9.904;2023-02-05T08:22:59;102681.66;;;0.76;87.60
16255;BME280;8235;52.198;9.904;2023-02-05T08:25:29;102680.81;;;0.79;87.50
16255;BME280;8235;52.198;9.904;2023-02-05T08:27:55;102681.72;;;0.81;87.34
16255;BME280;8235;52.198;9.904;2023-02-05T08:30:22;102681.75;;;0.84;87.37
16255;BME280;8235;52.198;9.904;2023-02-05T08:32:50;102679.13;;;0.85;87.66
16255;BME280;8235;52.198;9.904;2023-02-05T08:35:17;102673.03;;;0.88;87.62
16255;BME280;8235;52.198;9.904;2023-02-05T08:37:43;102671.31;;;0.93;87.28
16255;BME280;8235;52.198;9.904;2023-02-05T08:40:11;102671.34;;;0.94;87.47
16255;BME280;8235;52.198;9.904;2023-02-05T08:42:37;102670.47;;;0.97;87.33
16255;BME280;8235;52.198;9.904;2023-02-05T08:45:04;102674.88;;;0.99;87.50
16255;BME280;8235;52.198;9.904;2023-02-05T08:47:33;102682.78;;;1.02;87.52
16255;BME280;8235;52.198;9.904;2023-02-05T08:50:01;102684.56;;;1.05;87.05
16255;BME280;8235;52.198;9.904;2023-02-05T08:52:28;102687.19;;;1.07;87.44
16255;BME280;8235;52.198;9.904;2023-02-05T08:54:54;102680.22;;;1.07;87.03
16255;BME280;8235;52.198;9.904;2023-02-05T08:57:21;102679.31;;;1.10;86.90
16255;BME280;8235;52.198;9.904;2023-02-05T08:59:47;102684.59;;;1.11;86.83
16255;BME280;8235;52.198;9.904;2023-02-05T09:02:14;102674.13;;;1.14;86.59
16255;BME280;8235;52.198;9.904;2023-02-05T09:04:41;102678.53;;;1.17;86.67
16255;BME280;8235;52.198;9.904;2023-02-05T09:07:09;102672.41;;;1.19;86.98
16255;BME280;8235;52.198;9.904;2023-02-05T09:09:35;102674.19;;;1.22;86.91
16255;BME280;8235;52.198;9.904;2023-02-05T09:12:02;102675.97;;;1.24;86.68
16255;BME280;8235;52.198;9.904;2023-02-05T09:14:29;102675.97;;;1.27;87.12
16255;BME280;8235;52.198;9.904;2023-02-05T09:17:00;102678.59;;;1.29;86.78
16255;BME280;8235;52.198;9.904;2023-02-05T09:19:27;102670.75;;;1.33;86.87
16255;BME280;8235;52.198;9.904;2023-02-05T09:21:55;102666.41;;;1.35;86.59
16255;BME280;8235;52.198;9.904;2023-02-05T09:24:22;102668.19;;;1.38;87.01
16255;BME280;8235;52.198;9.904;2023-02-05T09:26:50;102676.06;;;1.39;86.84
16255;BME280;8235;52.198;9.904;2023-02-05T09:29:16;102678.72;;;1.43;87.15
16255;BME280;8235;52.198;9.904;2023-02-05T09:31:43;102675.22;;;1.45;87.38
16255;BME280;8235;52.198;9.904;2023-02-05T09:34:09;102668.22;;;1.47;87.14
16255;BME280;8235;52.198;9.904;2023-02-05T09:36:36;102670.88;;;1.50;87.58
16255;BME280;8235;52.198;9.904;2023-02-05T09:39:03;102667.38;;;1.53;87.10
16255;BME280;8235;52.198;9.904;2023-02-05T09:41:34;102670.91;;;1.55;87.56
16255;BME280;8235;52.198;9.904;2023-02-05T09:44:21;102672.69;;;1.57;87.51
16255;BME280;8235;52.198;9.904;2023-02-05T09:46:59;102666.56;;;1.58;87.51
16255;BME280;8235;52.198;9.904;2023-02-05T09:49:34;102677.94;;;1.62;87.99
16255;BME280;8235;52.198;9.904;2023-02-05T09:52:10;102677.06;;;1.64;88.27
16255;BME280;8235;52.198;9.904;2023-02-05T09:54:40;102677.09;;;1.67;88.21
16255;BME280;8235;52.198;9.904;2023-02-05T09:57:12;102683.25;;;1.71;88.42
16255;BME280;8235;52.198;9.904;2023-02-05T09:59:42;102692.91;;;1.73;89.01
16255;BME280;8235;52.198;9.904;2023-02-05T10:02:20;102695.53;;;1.75;88.68
16255;BME280;8235;52.198;9.904;2023-02-05T10:04:50;102689.44;;;1.76;88.86
16255;BME280;8235;52.198;9.904;2023-02-05T10:07:24;102697.31;;;1.79;89.64
16255;BME280;8235;52.198;9.904;2023-02-05T10:10:06;102688.56;;;1.79;89.14
16255;BME280;8235;52.198;9.904;2023-02-05T10:12:54;102692.06;;;1.81;89.91
16255;BME280;8235;52.198;9.904;2023-02-05T10:15:42;102685.06;;;1.81;89.99
16255;BME280;8235;52.198;9.904;2023-02-05T10:18:15;102685.06;;;1.81;90.22
16255;BME280;8235;52.198;9.904;2023-02-05T10:20:57;102693.78;;;1.80;89.85
16255;BME280;8235;52.198;9.904;2023-02-05T10:23:34;102688.53;;;1.80;90.24
16255;BME280;8235;52.198;9.904;2023-02-05T10:26:09;102676.28;;;1.81;90.55
16255;BME280;8235;52.198;9.904;2023-02-05T10:31:41;102681.56;;;1.82;91.66
16255;BME280;8235;52.198;9.904;2023-02-05T10:34:19;102681.56;;;1.82;91.11
16255;BME280;8235;52.198;9.904;2023-02-05T10:36:52;102678.06;;;1.83;91.46
16255;BME280;8235;52.198;9.904;2023-02-05T10:39:20;102672.81;;;1.83;91.59
16255;BME280;8235;52.198;9.904;2023-02-05T10:41:51;102681.56;;;1.85;91.93
16255;BME280;8235;52.198;9.904;2023-02-05T10:44:23;102679.84;;;1.87;92.83
16255;BME280;8235;52.198;9.904;2023-02-05T10:46:55;102674.59;;;1.89;92.84
16255;BME280;8235;52.198;9.904;2023-02-05T10:49:25;102682.50;;;1.92;93.40
16255;BME280;8235;52.198;9.904;2023-02-05T10:51:56;102679.88;;;1.92;93.41
16255;BME280;8235;52.198;9.904;2023-02-05T10:54:26;102686.00;;;1.94;93.70
16255;BME280;8235;52.198;9.904;2023-02-05T10:56:53;102690.41;;;1.95;94.03
16255;BME280;8235;52.198;9.904;2023-02-05T10:59:23;102693.91;;;1.97;93.95
16255;BME280;8235;52.198;9.904;2023-02-05T11:01:50;102685.16;;;1.96;93.79
16255;BME280;8235;52.198;9.904;2023-02-05T11:04:21;102684.25;;;1.97;93.90
16255;BME280;8235;52.198;9.904;2023-02-05T11:06:51;102677.25;;;1.98;94.49
16255;BME280;8235;52.198;9.904;2023-02-05T11:09:31;102687.75;;;1.99;94.63
16255;BME280;8235;52.198;9.904;2023-02-05T11:12:00;102686.91;;;2.00;94.99
16255;BME280;8235;52.198;9.904;2023-02-05T11:14:31;102693.91;;;2.01;94.90
16255;BME280;8235;52.198;9.904;2023-02-05T11:16:59;102700.94;;;2.02;95.17
16255;BME280;8235;52.198;9.904;2023-02-05T11:19:30;102693.03;;;2.02;94.70
16255;BME280;8235;52.198;9.904;2023-02-05T11:22:00;102693.03;;;2.02;95.39
16255;BME280;8235;52.198;9.904;2023-02-05T11:24:29;102687.78;;;2.04;95.03
16255;BME280;8235;52.198;9.904;2023-02-05T11:27:24;102691.31;;;2.07;96.06
16255;BME280;8235;52.198;9.904;2023-02-05T11:29:51;102697.47;;;2.11;96.06
16255;BME280;8235;52.198;9.904;2023-02-05T11:32:18;102701.00;;;2.13;95.56
16255;BME280;8235;52.198;9.904;2023-02-05T11:34:47;102701.00;;;2.15;96.29
16255;BME280;8235;52.198;9.904;2023-02-05T11:37:15;102693.97;;;2.15;95.72
16255;BME280;8235;52.198;9.904;2023-02-05T11:39:43;102705.38;;;2.17;96.48
16255;BME280;8235;52.198;9.904;2023-02-05T11:42:17;102700.13;;;2.19;96.19
16255;BME280;8235;52.198;9.904;2023-02-05T11:44:47;102715.03;;;2.21;97.02
16255;BME280;8235;52.198;9.904;2023-02-05T11:47:25;102712.41;;;2.24;96.99
16255;BME280;8235;52.198;9.904;2023-02-05T11:49:55;102716.81;;;2.28;96.34
16255;BME280;8235;52.198;9.904;2023-02-05T11:52:25;102710.69;;;2.28;97.02
16255;BME280;8235;52.198;9.904;2023-02-05T11:54:53;102713.31;;;2.29;96.98
16255;BME280;8235;52.198;9.904;2023-02-05T11:57:31;102715.09;;;2.32;97.29
16255;BME280;8235;52.198;9.904;2023-02-05T11:59:59;102721.19;;;2.34;97.60
16255;BME280;8235;52.198;9.904;2023-02-05T12:02:32;102727.34;;;2.36;96.85
16255;BME280;8235;52.198;9.904;2023-02-05T12:05:06;102735.25;;;2.39;97.49
16255;BME280;8235;52.198;9.904;2023-02-05T12:07:39;102735.28;;;2.43;97.75
16255;BME280;8235;52.198;9.904;2023-02-05T12:10:14;102736.16;;;2.47;97.20
16255;BME280;8235;52.198;9.904;2023-02-05T12:12:48;102748.44;;;2.51;97.30
16255;BME280;8235;52.198;9.904;2023-02-05T12:15:22;102752.84;;;2.55;98.07
16255;BME280;8235;52.198;9.904;2023-02-05T12:17:53;102759.00;;;2.57;97.95
16255;BME280;8235;52.198;9.904;2023-02-05T12:20:31;102760.75;;;2.58;97.42
16255;BME280;8235;52.198;9.904;2023-02-05T12:23:24;102764.28;;;2.62;97.26
16255;BME280;8235;52.198;9.904;2023-02-05T12:26:09;102763.41;;;2.64;97.69
16255;BME280;8235;52.198;9.904;2023-02-05T12:28:49;102775.69;;;2.67;97.57
16255;BME280;8235;52.198;9.904;2023-02-05T12:31:25;102780.06;;;2.69;97.21
16255;BME280;8235;52.198;9.904;2023-02-05T12:34:13;102776.56;;;2.72;97.94
16255;BME280;8235;52.198;9.904;2023-02-05T12:36:59;102766.03;;;2.73;97.14
16255;BME280;8235;52.198;9.904;2023-02-05T12:39:36;102765.16;;;2.73;96.93
16255;BME280;8235;52.198;9.904;2023-02-05T12:42:12;102768.69;;;2.75;97.14
16255;BME280;8235;52.198;9.904;2023-02-05T12:44:52;102759.91;;;2.76;96.72
16255;BME280;8235;52.198;9.904;2023-02-05T12:47:34;102755.53;;;2.79;96.74
16255;BME280;8235;52.198;9.904;2023-02-05T12:50:15;102744.16;;;2.79;96.74
16255;BME280;8235;52.198;9.904;2023-02-05T12:53:06;102742.38;;;2.79;96.51
16255;BME280;8235;52.198;9.904;2023-02-05T12:55:45;102735.38;;;2.82;96.50
16255;BME280;8235;52.198;9.904;2023-02-05T12:58:14;102745.03;;;2.83;95.80
16255;BME280;8235;52.198;9.904;2023-02-05T13:00:44;102731.00;;;2.85;96.04
16255;BME280;8235;52.198;9.904;2023-02-05T13:03:18;102717.81;;;2.88;96.41
16255;BME280;8235;52.198;9.904;2023-02-05T13:05:50;102712.56;;;2.93;95.77
16255;BME280;8235;52.198;9.904;2023-02-05T13:08:24;102699.44;;;2.96;96.05
16255;BME280;8235;52.198;9.904;2023-02-05T13:11:01;102699.44;;;2.99;95.96
16255;BME280;8235;52.198;9.904;2023-02-05T13:13:33;102708.22;;;3.02;96.11
16255;BME280;8235;52.198;9.904;2023-02-05T13:16:04;102704.69;;;3.05;96.45
16255;BME280;8235;52.198;9.904;2023-02-05T13:18:36;102702.03;;;3.05;95.93
16255;BME280;8235;52.198;9.904;2023-02-05T13:21:06;102706.44;;;3.06;96.29
16255;BME280;8235;52.198;9.904;2023-02-05T13:23:59;102712.59;;;3.08;95.87